sensor_id;sensor_type;location;lat;lon;timestamp;P1;durP1;ratioP1;P2;durP2;ratioP2
20861;SDS011;10591;52.532;13.348;2023-01-15T00:00:35;1.62;;;1.52;;
20861;SDS011;10591;52.532;13.348;2023-01-15T00:03:07;2.25;;;1.70;;
20861;SDS011;10591;52.532;13.348;2023-01-15T00:05:40;2.22;;;1.98;;
20861;SDS011;10591;52.532;13.348;2023-01-15T00:08:10;1.80;;;1.70;;
20861;SDS011;10591;52.532;13.348;2023-01-15T00:10:41;2.17;;;1.75;;
20861;SDS011;10591;52.532;13.348;2023-01-15T00:13:12;2.45;;;1.70;;
20861;SDS011;10591;52.532;13.348;2023-01-15T00:15:44;2.95;;;1.70;;
20861;SDS011;10591;52.532;13.348;2023-01-15T00:18:16;2.50;;;1.80;;
20861;SDS011;10591;52.532;13.348;2023-01-15T00:20:49;1.52;;;1.40;;
20861;SDS011;10591;52.532;13.348;2023-01-15T00:23:23;1.72;;;1.42;;
20861;SDS011;10591;52.532;13.348;2023-01-15T00:26:16;1.72;;;1.55;;
20861;SDS011;10591;52.532;13.348;2023-01-15T00:29:05;1.82;;;1.45;;
20861;SDS011;10591;52.532;13.348;2023-01-15T00:31:44;1.55;;;1.45;;
20861;SDS011;10591;52.532;13.348;2023-01-15T00:34:13;1.65;;;1.30;;
20861;SDS011;10591;52.532;13.348;2023-01-15T00:36:45;1.37;;;1.27;;
20861;SDS011;10591;52.532;13.348;2023-01-15T00:39:21;1.52;;;1.30;;
20861;SDS011;10591;52.532;13.348;2023-01-15T00:41:54;1.92;;;1.37;;
20861;SDS011;10591;52.532;13.348;2023-01-15T00:44:27;3.27;;;1.40;;
20861;SDS011;10591;52.532;13.348;2023-01-15T00:46:58;1.12;;;1.07;;
20861;SDS011;10591;52.532;13.348;2023-01-15T00:49:31;1.87;;;1.67;;
20861;SDS011;10591;52.532;13.348;2023-01-15T00:52:04;1.95;;;1.65;;
20861;SDS011;10591;52.532;13.348;2023-01-15T00:54:36;2.27;;;1.55;;
20861;SDS011;10591;52.532;13.348;2023-01-15T00:57:08;2.00;;;1.42;;
20861;SDS011;10591;52.532;13.348;2023-01-15T00:59:39;1.87;;;1.40;;
20861;SDS011;10591;52.532;13.348;2023-01-15T01:02:09;1.45;;;1.10;;
20861;SDS011;10591;52.532;13.348;2023-01-15T01:04:43;1.42;;;1.32;;
20861;SDS011;10591;52.532;13.348;2023-01-15T01:07:19;3.15;;;1.22;;
20861;SDS011;10591;52.532;13.348;2023-01-15T01:09:56;1.30;;;1.20;;
20861;SDS011;10591;52.532;13.348;2023-01-15T01:12:21;1.55;;;1.37;;
20861;SDS011;10591;52.532;13.348;2023-01-15T01:14:54;1.27;;;1.10;;
20861;SDS011;10591;52.532;13.348;2023-01-15T01:17:25;1.60;;;1.40;;
20861;SDS011;10591;52.532;13.348;2023-01-15T01:19:57;2.00;;;1.37;;
20861;SDS011;10591;52.532;13.348;2023-01-15T01:22:28;1.72;;;1.62;;
20861;SDS011;10591;52.532;13.348;2023-01-15T01:25:00;1.30;;;1.20;;
20861;SDS011;10591;52.532;13.348;2023-01-15T01:27:31;1.35;;;1.25;;
20861;SDS011;10591;52.532;13.348;2023-01-15T01:30:01;2.42;;;1.25;;
20861;SDS011;10591;52.532;13.348;2023-01-15T01:32:32;1.65;;;1.35;;
20861;SDS011;10591;52.532;13.348;2023-01-15T01:35:04;1.30;;;1.20;;
20861;SDS011;10591;52.532;13.348;2023-01-15T01:37:35;1.42;;;1.32;;
20861;SDS011;10591;52.532;13.348;2023-01-15T01:40:11;1.57;;;1.30;;
20861;SDS011;10591;52.532;13.348;2023-01-15T01:42:42;1.45;;;1.20;;
20861;SDS011;10591;52.532;13.348;2023-01-15T01:45:26;1.30;;;1.20;;
20861;SDS011;10591;52.532;13.348;2023-01-15T01:47:59;2.47;;;1.20;;
20861;SDS011;10591;52.532;13.348;2023-01-15T01:50:34;2.35;;;1.87;;
20861;SDS011;10591;52.532;13.348;2023-01-15T01:53:07;1.15;;;1.07;;
20861;SDS011;10591;52.532;13.348;2023-01-15T01:55:42;1.30;;;1.10;;
20861;SDS011;10591;52.532;13.348;2023-01-15T01:58:13;1.50;;;1.40;;
20861;SDS011;10591;52.532;13.348;2023-01-15T02:00:47;1.20;;;1.10;;
20861;SDS011;10591;52.532;13.348;2023-01-15T02:03:20;1.25;;;1.10;;
20861;SDS011;10591;52.532;13.348;2023-01-15T02:05:54;1.98;;;1.87;;
20861;SDS011;10591;52.532;13.348;2023-01-15T02:08:27;1.98;;;1.32;;
20861;SDS011;10591;52.532;13.348;2023-01-15T02:11:00;2.08;;;1.55;;
20861;SDS011;10591;52.532;13.348;2023-01-15T02:13:34;1.45;;;1.20;;
20861;SDS011;10591;52.532;13.348;2023-01-15T02:16:20;1.30;;;1.20;;
20861;SDS011;10591;52.532;13.348;2023-01-15T02:27:39;1.30;;;1.12;;
20861;SDS011;10591;52.532;13.348;2023-01-15T02:30:22;1.32;;;1.12;;
20861;SDS011;10591;52.532;13.348;2023-01-15T02:33:03;1.60;;;1.40;;
20861;SDS011;10591;52.532;13.348;2023-01-15T02:35:40;1.15;;;1.12;;
20861;SDS011;10591;52.532;13.348;2023-01-15T02:38:14;1.25;;;1.07;;
20861;SDS011;10591;52.532;13.348;2023-01-15T02:40:50;1.50;;;1.30;;
20861;SDS011;10591;52.532;13.348;2023-01-15T02:43:23;1.00;;;0.90;;
20861;SDS011;10591;52.532;13.348;2023-01-15T02:45:57;1.02;;;1.00;;
20861;SDS011;10591;52.532;13.348;2023-01-15T02:48:33;0.80;;;0.80;;
20861;SDS011;10591;52.532;13.348;2023-01-15T02:51:14;1.45;;;1.00;;
20861;SDS011;10591;52.532;13.348;2023-01-15T02:53:51;0.80;;;0.80;;
20861;SDS011;10591;52.532;13.348;2023-01-15T02:56:28;0.80;;;0.80;;
20861;SDS011;10591;52.532;13.348;2023-01-15T02:59:02;1.32;;;1.10;;
20861;SDS011;10591;52.532;13.348;2023-01-15T03:01:36;1.17;;;1.07;;
20861;SDS011;10591;52.532;13.348;2023-01-15T03:07:07;0.80;;;0.80;;
20861;SDS011;10591;52.532;13.348;2023-01-15T03:09:44;1.20;;;1.12;;
20861;SDS011;10591;52.532;13.348;2023-01-15T03:15:16;1.10;;;1.10;;
20861;SDS011;10591;52.532;13.348;2023-01-15T03:17:42;1.10;;;1.00;;
20861;SDS011;10591;52.532;13.348;2023-01-15T03:20:18;1.30;;;1.00;;
20861;SDS011;10591;52.532;13.348;2023-01-15T03:22:51;1.22;;;1.12;;
20861;SDS011;10591;52.532;13.348;2023-01-15T03:25:24;1.20;;;1.17;;
20861;SDS011;10591;52.532;13.348;2023-01-15T03:27:58;0.90;;;0.90;;
20861;SDS011;10591;52.532;13.348;2023-01-15T03:30:32;1.02;;;1.02;;
20861;SDS011;10591;52.532;13.348;2023-01-15T03:33:03;1.00;;;1.00;;
20861;SDS011;10591;52.532;13.348;2023-01-15T03:35:45;1.95;;;1.15;;
20861;SDS011;10591;52.532;13.348;2023-01-15T03:38:19;1.05;;;0.95;;
20861;SDS011;10591;52.532;13.348;2023-01-15T03:46:54;0.90;;;0.90;;
20861;SDS011;10591;52.532;13.348;2023-01-15T03:55:17;0.90;;;0.90;;
20861;SDS011;10591;52.532;13.348;2023-01-15T03:58:01;1.17;;;1.10;;
20861;SDS011;10591;52.532;13.348;2023-01-15T04:00:46;2.33;;;1.37;;
20861;SDS011;10591;52.532;13.348;2023-01-15T04:03:17;1.60;;;1.47;;
20861;SDS011;10591;52.532;13.348;2023-01-15T04:05:53;1.37;;;1.27;;
20861;SDS011;10591;52.532;13.348;2023-01-15T04:08:35;1.20;;;1.20;;
20861;SDS011;10591;52.532;13.348;2023-01-15T04:11:07;1.12;;;0.98;;
20861;SDS011;10591;52.532;13.348;2023-01-15T04:13:38;1.52;;;1.20;;
20861;SDS011;10591;52.532;13.348;2023-01-15T04:16:10;0.95;;;0.95;;
20861;SDS011;10591;52.532;13.348;2023-01-15T04:18:44;1.35;;;1.02;;
20861;SDS011;10591;52.532;13.348;2023-01-15T04:21:19;1.52;;;1.12;;
20861;SDS011;10591;52.532;13.348;2023-01-15T04:23:51;1.20;;;1.10;;
20861;SDS011;10591;52.532;13.348;2023-01-15T04:26:21;1.20;;;1.17;;
20861;SDS011;10591;52.532;13.348;2023-01-15T04:29:00;1.20;;;1.10;;
20861;SDS011;10591;52.532;13.348;2023-01-15T04:31:39;1.32;;;1.22;;
20861;SDS011;10591;52.532;13.348;2023-01-15T04:34:12;1.55;;;1.45;;
20861;SDS011;10591;52.532;13.348;2023-01-15T04:36:44;0.70;;;0.70;;
20861;SDS011;10591;52.532;13.348;2023-01-15T04:39:16;1.05;;;0.80;;
20861;SDS011;10591;52.532;13.348;2023-01-15T04:41:49;1.32;;;1.00;;
20861;SDS011;10591;52.532;13.348;2023-01-15T04:44:38;0.88;;;0.88;;
20861;SDS011;10591;52.532;13.348;2023-01-15T04:47:10;1.00;;;0.90;;
20861;SDS011;10591;52.532;13.348;2023-01-15T04:49:41;0.90;;;0.90;;
20861;SDS011;10591;52.532;13.348;2023-01-15T04:52:12;1.22;;;1.00;;
20861;SDS011;10591;52.532;13.348;2023-01-15T04:54:46;1.40;;;0.75;;
20861;SDS011;10591;52.532;13.348;2023-01-15T04:57:17;0.55;;;0.55;;
20861;SDS011;10591;52.532;13.348;2023-01-15T04:59:48;0.70;;;0.70;;
20861;SDS011;10591;52.532;13.348;2023-01-15T05:02:19;1.40;;;1.10;;
20861;SDS011;10591;52.532;13.348;2023-01-15T05:04:50;1.13;;;1.03;;
20861;SDS011;10591;52.532;13.348;2023-01-15T05:07:21;2.08;;;1.07;;
20861;SDS011;10591;52.532;13.348;2023-01-15T05:09:52;1.77;;;0.90;;
20861;SDS011;10591;52.532;13.348;2023-01-15T05:12:25;0.80;;;0.60;;
20861;SDS011;10591;52.532;13.348;2023-01-15T05:14:57;0.90;;;0.80;;
20861;SDS011;10591;52.532;13.348;2023-01-15T05:17:31;1.00;;;0.67;;
20861;SDS011;10591;52.532;13.348;2023-01-15T05:20:03;1.45;;;1.15;;
20861;SDS011;10591;52.532;13.348;2023-01-15T05:22:35;1.15;;;0.62;;
20861;SDS011;10591;52.532;13.348;2023-01-15T05:25:07;0.80;;;0.80;;
20861;SDS011;10591;52.532;13.348;2023-01-15T05:27:40;0.70;;;0.70;;
20861;SDS011;10591;52.532;13.348;2023-01-15T05:30:10;1.30;;;0.90;;
20861;SDS011;10591;52.532;13.348;2023-01-15T05:32:42;3.50;;;1.47;;
20861;SDS011;10591;52.532;13.348;2023-01-15T05:35:12;1.70;;;1.03;;
20861;SDS011;10591;52.532;13.348;2023-01-15T05:37:43;0.98;;;0.80;;
20861;SDS011;10591;52.532;13.348;2023-01-15T05:40:14;2.60;;;1.13;;
20861;SDS011;10591;52.532;13.348;2023-01-15T05:42:46;1.62;;;1.52;;
20861;SDS011;10591;52.532;13.348;2023-01-15T05:45:23;2.33;;;1.20;;
20861;SDS011;10591;52.532;13.348;2023-01-15T05:47:54;0.72;;;0.72;;
20861;SDS011;10591;52.532;13.348;2023-01-15T05:50:29;1.00;;;0.93;;
20861;SDS011;10591;52.532;13.348;2023-01-15T05:52:59;1.93;;;1.00;;
20861;SDS011;10591;52.532;13.348;2023-01-15T05:55:30;1.00;;;0.90;;
20861;SDS011;10591;52.532;13.348;2023-01-15T05:58:04;1.20;;;1.05;;
20861;SDS011;10591;52.532;13.348;2023-01-15T06:00:37;1.50;;;1.40;;
20861;SDS011;10591;52.532;13.348;2023-01-15T06:03:09;1.37;;;1.10;;
20861;SDS011;10591;52.532;13.348;2023-01-15T06:05:40;2.03;;;1.00;;
20861;SDS011;10591;52.532;13.348;2023-01-15T06:08:13;1.35;;;0.75;;
20861;SDS011;10591;52.532;13.348;2023-01-15T06:10:46;1.32;;;1.00;;
20861;SDS011;10591;52.532;13.348;2023-01-15T06:13:20;1.10;;;1.00;;
20861;SDS011;10591;52.532;13.348;2023-01-15T06:15:51;2.42;;;0.72;;
20861;SDS011;10591;52.532;13.348;2023-01-15T06:18:23;0.67;;;0.67;;
20861;SDS011;10591;52.532;13.348;2023-01-15T06:20:56;1.47;;;0.95;;
20861;SDS011;10591;52.532;13.348;2023-01-15T06:23:29;0.90;;;0.90;;
20861;SDS011;10591;52.532;13.348;2023-01-15T06:26:05;2.35;;;0.70;;
20861;SDS011;10591;52.532;13.348;2023-01-15T06:28:38;2.22;;;1.17;;
20861;SDS011;10591;52.532;13.348;2023-01-15T06:31:14;0.95;;;0.90;;
20861;SDS011;10591;52.532;13.348;2023-01-15T06:33:46;1.72;;;0.85;;
20861;SDS011;10591;52.532;13.348;2023-01-15T06:36:19;1.30;;;0.98;;
20861;SDS011;10591;52.532;13.348;2023-01-15T06:38:52;1.15;;;0.90;;
20861;SDS011;10591;52.532;13.348;2023-01-15T06:41:26;1.07;;;0.93;;
20861;SDS011;10591;52.532;13.348;2023-01-15T06:44:17;0.95;;;0.80;;
20861;SDS011;10591;52.532;13.348;2023-01-15T06:47:13;1.02;;;0.95;;
20861;SDS011;10591;52.532;13.348;2023-01-15T06:49:53;1.23;;;1.10;;
20861;SDS011;10591;52.532;13.348;2023-01-15T06:52:31;1.52;;;1.00;;
20861;SDS011;10591;52.532;13.348;2023-01-15T06:55:03;1.82;;;0.90;;
20861;SDS011;10591;52.532;13.348;2023-01-15T06:57:36;1.35;;;1.25;;
20861;SDS011;10591;52.532;13.348;2023-01-15T07:00:10;2.53;;;0.97;;
20861;SDS011;10591;52.532;13.348;2023-01-15T07:02:43;1.87;;;0.82;;
20861;SDS011;10591;52.532;13.348;2023-01-15T07:05:17;0.93;;;0.60;;
20861;SDS011;10591;52.532;13.348;2023-01-15T07:07:51;0.75;;;0.70;;
20861;SDS011;10591;52.532;13.348;2023-01-15T07:10:23;2.17;;;1.20;;
20861;SDS011;10591;52.532;13.348;2023-01-15T07:12:54;1.95;;;1.00;;
20861;SDS011;10591;52.532;13.348;2023-01-15T07:15:26;1.30;;;0.90;;
20861;SDS011;10591;52.532;13.348;2023-01-15T07:17:57;1.52;;;0.68;;
20861;SDS011;10591;52.532;13.348;2023-01-15T07:20:29;0.90;;;0.90;;
20861;SDS011;10591;52.532;13.348;2023-01-15T07:23:03;1.20;;;1.10;;
20861;SDS011;10591;52.532;13.348;2023-01-15T07:25:34;1.00;;;1.00;;
20861;SDS011;10591;52.532;13.348;2023-01-15T07:28:07;1.62;;;1.00;;
20861;SDS011;10591;52.532;13.348;2023-01-15T07:30:38;1.50;;;1.10;;
20861;SDS011;10591;52.532;13.348;2023-01-15T07:33:10;1.72;;;1.10;;
20861;SDS011;10591;52.532;13.348;2023-01-15T07:35:43;2.08;;;1.10;;
20861;SDS011;10591;52.532;13.348;2023-01-15T07:38:20;2.42;;;1.10;;
20861;SDS011;10591;52.532;13.348;2023-01-15T07:40:58;3.43;;;1.37;;
20861;SDS011;10591;52.532;13.348;2023-01-15T07:43:49;1.07;;;1.00;;
20861;SDS011;10591;52.532;13.348;2023-01-15T07:46:38;1.37;;;1.20;;
20861;SDS011;10591;52.532;13.348;2023-01-15T07:49:26;1.27;;;0.80;;
20861;SDS011;10591;52.532;13.348;2023-01-15T07:52:18;1.17;;;1.05;;
20861;SDS011;10591;52.532;13.348;2023-01-15T07:54:51;2.10;;;1.40;;
20861;SDS011;10591;52.532;13.348;2023-01-15T07:57:22;1.22;;;1.00;;
20861;SDS011;10591;52.532;13.348;2023-01-15T07:59:54;1.67;;;1.10;;
20861;SDS011;10591;52.532;13.348;2023-01-15T08:02:26;1.92;;;0.90;;
20861;SDS011;10591;52.532;13.348;2023-01-15T08:04:58;1.40;;;1.22;;
20861;SDS011;10591;52.532;13.348;2023-01-15T08:07:28;1.75;;;1.30;;
20861;SDS011;10591;52.532;13.348;2023-01-15T08:09:59;1.30;;;1.20;;
20861;SDS011;10591;52.532;13.348;2023-01-15T08:12:29;2.97;;;1.30;;
20861;SDS011;10591;52.532;13.348;2023-01-15T08:15:24;1.47;;;1.30;;
20861;SDS011;10591;52.532;13.348;2023-01-15T08:17:56;1.60;;;1.30;;
20861;SDS011;10591;52.532;13.348;2023-01-15T08:20:27;1.30;;;0.98;;
20861;SDS011;10591;52.532;13.348;2023-01-15T08:22:59;1.15;;;1.05;;
20861;SDS011;10591;52.532;13.348;2023-01-15T08:25:35;1.27;;;1.17;;
20861;SDS011;10591;52.532;13.348;2023-01-15T08:28:05;2.30;;;1.30;;
20861;SDS011;10591;52.532;13.348;2023-01-15T08:30:37;1.07;;;0.90;;
20861;SDS011;10591;52.532;13.348;2023-01-15T08:33:07;0.85;;;0.85;;
20861;SDS011;10591;52.532;13.348;2023-01-15T08:35:39;1.82;;;0.90;;
20861;SDS011;10591;52.532;13.348;2023-01-15T08:38:10;3.37;;;1.97;;
20861;SDS011;10591;52.532;13.348;2023-01-15T08:40:45;1.77;;;1.60;;
20861;SDS011;10591;52.532;13.348;2023-01-15T08:43:31;1.60;;;1.50;;
20861;SDS011;10591;52.532;13.348;2023-01-15T08:46:08;1.60;;;1.50;;
20861;SDS011;10591;52.532;13.348;2023-01-15T08:48:39;1.50;;;1.40;;
20861;SDS011;10591;52.532;13.348;2023-01-15T08:51:14;1.17;;;1.07;;
20861;SDS011;10591;52.532;13.348;2023-01-15T08:53:46;1.60;;;1.50;;
20861;SDS011;10591;52.532;13.348;2023-01-15T08:56:18;1.43;;;1.20;;
20861;SDS011;10591;52.532;13.348;2023-01-15T08:58:50;1.67;;;1.07;;
20861;SDS011;10591;52.532;13.348;2023-01-15T09:01:24;1.90;;;1.10;;
20861;SDS011;10591;52.532;13.348;2023-01-15T09:03:56;1.85;;;1.17;;
20861;SDS011;10591;52.532;13.348;2023-01-15T09:06:29;2.20;;;1.10;;
20861;SDS011;10591;52.532;13.348;2023-01-15T09:09:00;1.70;;;1.10;;
20861;SDS011;10591;52.532;13.348;2023-01-15T09:11:36;1.40;;;1.30;;
20861;SDS011;10591;52.532;13.348;2023-01-15T09:14:13;1.62;;;1.17;;
20861;SDS011;10591;52.532;13.348;2023-01-15T09:16:47;1.50;;;1.20;;
20861;SDS011;10591;52.532;13.348;2023-01-15T09:19:18;2.22;;;1.12;;
20861;SDS011;10591;52.532;13.348;2023-01-15T09:21:48;1.72;;;1.40;;
20861;SDS011;10591;52.532;13.348;2023-01-15T09:24:23;2.67;;;1.20;;
20861;SDS011;10591;52.532;13.348;2023-01-15T09:26:54;1.32;;;1.07;;
20861;SDS011;10591;52.532;13.348;2023-01-15T09:29:25;1.30;;;1.20;;
20861;SDS011;10591;52.532;13.348;2023-01-15T09:31:55;1.62;;;1.10;;
20861;SDS011;10591;52.532;13.348;2023-01-15T09:34:26;1.40;;;1.30;;
20861;SDS011;10591;52.532;13.348;2023-01-15T09:36:56;1.30;;;1.20;;
20861;SDS011;10591;52.532;13.348;2023-01-15T09:39:27;2.20;;;1.20;;
20861;SDS011;10591;52.532;13.348;2023-01-15T09:50:47;3.77;;;2.27;;
20861;SDS011;10591;52.532;13.348;2023-01-15T09:53:46;1.32;;;1.10;;
20861;SDS011;10591;52.532;13.348;2023-01-15T09:56:25;1.27;;;1.17;;
20861;SDS011;10591;52.532;13.348;2023-01-15T09:59:00;1.55;;;1.27;;
20861;SDS011;10591;52.532;13.348;2023-01-15T10:01:34;2.00;;;1.10;;
20861;SDS011;10591;52.532;13.348;2023-01-15T10:06:55;2.10;;;1.20;;
20861;SDS011;10591;52.532;13.348;2023-01-15T10:09:48;1.40;;;1.30;;
20861;SDS011;10591;52.532;13.348;2023-01-15T10:12:29;1.40;;;1.25;;
20861;SDS011;10591;52.532;13.348;2023-01-15T10:17:45;1.30;;;1.20;;
20861;SDS011;10591;52.532;13.348;2023-01-15T10:26:13;2.12;;;1.30;;
20861;SDS011;10591;52.532;13.348;2023-01-15T10:28:56;1.32;;;1.22;;
20861;SDS011;10591;52.532;13.348;2023-01-15T10:31:43;1.65;;;1.20;;
20861;SDS011;10591;52.532;13.348;2023-01-15T10:37:13;1.70;;;1.25;;
20861;SDS011;10591;52.532;13.348;2023-01-15T10:40:01;1.50;;;1.40;;
20861;SDS011;10591;52.532;13.348;2023-01-15T10:45:43;1.57;;;1.37;;
20861;SDS011;10591;52.532;13.348;2023-01-15T10:48:18;1.10;;;1.10;;
20861;SDS011;10591;52.532;13.348;2023-01-15T10:59:45;1.20;;;1.20;;
20861;SDS011;10591;52.532;13.348;2023-01-15T11:02:28;1.70;;;1.50;;
20861;SDS011;10591;52.532;13.348;2023-01-15T11:05:05;1.80;;;1.70;;
20861;SDS011;10591;52.532;13.348;2023-01-15T11:07:50;1.80;;;1.70;;
20861;SDS011;10591;52.532;13.348;2023-01-15T11:10:23;2.02;;;1.75;;
20861;SDS011;10591;52.532;13.348;2023-01-15T11:13:17;2.67;;;1.70;;
20861;SDS011;10591;52.532;13.348;2023-01-15T11:16:15;2.98;;;1.62;;
20861;SDS011;10591;52.532;13.348;2023-01-15T11:19:23;1.70;;;1.45;;
20861;SDS011;10591;52.532;13.348;2023-01-15T11:22:13;2.95;;;1.60;;
20861;SDS011;10591;52.532;13.348;2023-01-15T11:24:50;1.70;;;1.60;;
20861;SDS011;10591;52.532;13.348;2023-01-15T11:27:33;1.75;;;1.37;;
20861;SDS011;10591;52.532;13.348;2023-01-15T11:30:06;2.05;;;1.67;;
20861;SDS011;10591;52.532;13.348;2023-01-15T11:32:38;2.27;;;1.90;;
20861;SDS011;10591;52.532;13.348;2023-01-15T11:35:16;1.95;;;1.70;;
20861;SDS011;10591;52.532;13.348;2023-01-15T11:37:49;2.25;;;2.05;;
20861;SDS011;10591;52.532;13.348;2023-01-15T11:40:21;2.23;;;1.80;;
20861;SDS011;10591;52.532;13.348;2023-01-15T11:42:53;2.95;;;2.10;;
20861;SDS011;10591;52.532;13.348;2023-01-15T11:45:49;1.77;;;1.50;;
20861;SDS011;10591;52.532;13.348;2023-01-15T11:48:45;2.83;;;1.95;;
20861;SDS011;10591;52.532;13.348;2023-01-15T11:51:38;2.67;;;2.02;;
20861;SDS011;10591;52.532;13.348;2023-01-15T11:54:15;2.12;;;1.85;;
20861;SDS011;10591;52.532;13.348;2023-01-15T11:56:49;2.42;;;2.05;;
20861;SDS011;10591;52.532;13.348;2023-01-15T11:59:22;2.33;;;2.12;;
20861;SDS011;10591;52.532;13.348;2023-01-15T12:02:01;2.10;;;1.87;;
20861;SDS011;10591;52.532;13.348;2023-01-15T12:07:25;1.25;;;1.20;;
20861;SDS011;10591;52.532;13.348;2023-01-15T12:10:02;3.52;;;1.90;;
20861;SDS011;10591;52.532;13.348;2023-01-15T12:13:00;2.55;;;1.85;;
20861;SDS011;10591;52.532;13.348;2023-01-15T12:15:46;2.40;;;1.87;;
20861;SDS011;10591;52.532;13.348;2023-01-15T12:18:27;2.98;;;1.72;;
20861;SDS011;10591;52.532;13.348;2023-01-15T12:29:17;1.80;;;1.55;;
20861;SDS011;10591;52.532;13.348;2023-01-15T12:31:59;1.65;;;1.47;;
20861;SDS011;10591;52.532;13.348;2023-01-15T12:34:54;2.57;;;1.60;;
20861;SDS011;10591;52.532;13.348;2023-01-15T12:40:26;3.27;;;1.98;;
20861;SDS011;10591;52.532;13.348;2023-01-15T12:43:00;2.55;;;1.70;;
20861;SDS011;10591;52.532;13.348;2023-01-15T12:45:45;3.75;;;1.70;;
20861;SDS011;10591;52.532;13.348;2023-01-15T12:51:02;2.00;;;1.82;;
20861;SDS011;10591;52.532;13.348;2023-01-15T12:53:42;3.02;;;1.50;;
20861;SDS011;10591;52.532;13.348;2023-01-15T12:59:13;2.60;;;1.95;;
20861;SDS011;10591;52.532;13.348;2023-01-15T13:01:53;2.20;;;1.60;;
20861;SDS011;10591;52.532;13.348;2023-01-15T13:04:49;2.50;;;1.70;;
20861;SDS011;10591;52.532;13.348;2023-01-15T13:07:35;3.07;;;1.97;;
20861;SDS011;10591;52.532;13.348;2023-01-15T13:10:18;1.83;;;1.50;;
20861;SDS011;10591;52.532;13.348;2023-01-15T13:12:53;3.37;;;1.77;;
20861;SDS011;10591;52.532;13.348;2023-01-15T13:15:30;2.67;;;1.92;;
20861;SDS011;10591;52.532;13.348;2023-01-15T13:18:25;3.13;;;1.80;;
20861;SDS011;10591;52.532;13.348;2023-01-15T13:21:17;2.63;;;1.83;;
20861;SDS011;10591;52.532;13.348;2023-01-15T13:23:57;3.47;;;2.00;;
20861;SDS011;10591;52.532;13.348;2023-01-15T13:34:55;3.60;;;1.98;;
20861;SDS011;10591;52.532;13.348;2023-01-15T13:37:41;2.33;;;1.90;;
20861;SDS011;10591;52.532;13.348;2023-01-15T13:42:50;2.17;;;1.75;;
20861;SDS011;10591;52.532;13.348;2023-01-15T13:48:14;2.87;;;1.50;;
20861;SDS011;10591;52.532;13.348;2023-01-15T13:50:55;2.93;;;2.20;;
20861;SDS011;10591;52.532;13.348;2023-01-15T13:53:36;2.65;;;2.22;;
20861;SDS011;10591;52.532;13.348;2023-01-15T13:56:10;2.23;;;1.80;;
20861;SDS011;10591;52.532;13.348;2023-01-15T13:58:51;2.35;;;1.62;;
20861;SDS011;10591;52.532;13.348;2023-01-15T14:01:31;2.80;;;1.87;;
20861;SDS011;10591;52.532;13.348;2023-01-15T14:06:46;1.90;;;1.67;;
20861;SDS011;10591;52.532;13.348;2023-01-15T14:12:21;1.85;;;1.62;;
20861;SDS011;10591;52.532;13.348;2023-01-15T14:23:07;2.93;;;1.90;;
20861;SDS011;10591;52.532;13.348;2023-01-15T14:31:41;2.93;;;1.80;;
20861;SDS011;10591;52.532;13.348;2023-01-15T14:34:23;5.50;;;1.80;;
20861;SDS011;10591;52.532;13.348;2023-01-15T14:36:59;2.73;;;1.70;;
20861;SDS011;10591;52.532;13.348;2023-01-15T14:39:38;1.80;;;1.60;;
20861;SDS011;10591;52.532;13.348;2023-01-15T14:42:14;3.80;;;1.80;;
20861;SDS011;10591;52.532;13.348;2023-01-15T14:45:17;1.95;;;1.80;;
20861;SDS011;10591;52.532;13.348;2023-01-15T14:47:53;3.17;;;2.00;;
20861;SDS011;10591;52.532;13.348;2023-01-15T15:01:22;2.20;;;1.97;;
20861;SDS011;10591;52.532;13.348;2023-01-15T15:04:02;4.60;;;2.10;;
20861;SDS011;10591;52.532;13.348;2023-01-15T15:06:53;2.90;;;2.10;;
20861;SDS011;10591;52.532;13.348;2023-01-15T15:09:40;3.23;;;2.53;;
20861;SDS011;10591;52.532;13.348;2023-01-15T15:12:40;4.30;;;1.92;;
20861;SDS011;10591;52.532;13.348;2023-01-15T15:24:06;2.75;;;2.30;;
20861;SDS011;10591;52.532;13.348;2023-01-15T15:26:35;1.80;;;1.53;;
20861;SDS011;10591;52.532;13.348;2023-01-15T15:29:11;4.53;;;2.70;;
20861;SDS011;10591;52.532;13.348;2023-01-15T15:31:45;2.35;;;2.12;;
20861;SDS011;10591;52.532;13.348;2023-01-15T15:36:58;3.87;;;2.58;;
20861;SDS011;10591;52.532;13.348;2023-01-15T15:45:24;5.47;;;3.02;;
20861;SDS011;10591;52.532;13.348;2023-01-15T15:54:09;6.43;;;3.37;;
20861;SDS011;10591;52.532;13.348;2023-01-15T15:56:46;4.83;;;2.83;;
20861;SDS011;10591;52.532;13.348;2023-01-15T16:01:58;4.20;;;2.77;;
20861;SDS011;10591;52.532;13.348;2023-01-15T16:04:31;7.77;;;3.13;;
20861;SDS011;10591;52.532;13.348;2023-01-15T16:07:10;4.97;;;2.85;;
20861;SDS011;10591;52.532;13.348;2023-01-15T16:09:45;8.53;;;3.70;;
20861;SDS011;10591;52.532;13.348;2023-01-15T16:12:16;6.53;;;3.03;;
20861;SDS011;10591;52.532;13.348;2023-01-15T16:14:48;9.30;;;3.30;;
20861;SDS011;10591;52.532;13.348;2023-01-15T16:17:20;7.83;;;3.30;;
20861;SDS011;10591;52.532;13.348;2023-01-15T16:19:55;7.20;;;3.33;;
20861;SDS011;10591;52.532;13.348;2023-01-15T16:22:26;7.03;;;3.13;;
20861;SDS011;10591;52.532;13.348;2023-01-15T16:24:58;6.60;;;2.97;;
20861;SDS011;10591;52.532;13.348;2023-01-15T16:27:31;7.90;;;3.42;;
20861;SDS011;10591;52.532;13.348;2023-01-15T16:30:11;8.57;;;4.33;;
20861;SDS011;10591;52.532;13.348;2023-01-15T16:32:40;7.30;;;3.60;;
20861;SDS011;10591;52.532;13.348;2023-01-15T16:35:15;4.57;;;2.50;;
20861;SDS011;10591;52.532;13.348;2023-01-15T16:37:56;8.20;;;3.25;;
20861;SDS011;10591;52.532;13.348;2023-01-15T16:40:36;5.53;;;3.20;;
20861;SDS011;10591;52.532;13.348;2023-01-15T16:46:27;36.30;;;11.67;;
20861;SDS011;10591;52.532;13.348;2023-01-15T16:48:36;11.07;;;4.90;;
20861;SDS011;10591;52.532;13.348;2023-01-15T16:51:22;11.35;;;5.17;;
20861;SDS011;10591;52.532;13.348;2023-01-15T16:54:11;8.33;;;3.92;;
20861;SDS011;10591;52.532;13.348;2023-01-15T16:59:17;13.33;;;5.00;;
20861;SDS011;10591;52.532;13.348;2023-01-15T17:01:52;10.00;;;4.00;;
20861;SDS011;10591;52.532;13.348;2023-01-15T17:04:31;5.80;;;2.83;;
20861;SDS011;10591;52.532;13.348;2023-01-15T17:07:07;5.37;;;2.73;;
20861;SDS011;10591;52.532;13.348;2023-01-15T17:09:52;4.93;;;2.67;;
20861;SDS011;10591;52.532;13.348;2023-01-15T17:17:49;6.20;;;3.30;;
20861;SDS011;10591;52.532;13.348;2023-01-15T17:20:23;8.10;;;3.43;;
20861;SDS011;10591;52.532;13.348;2023-01-15T17:23:01;5.73;;;2.50;;
20861;SDS011;10591;52.532;13.348;2023-01-15T17:25:33;3.67;;;3.10;;
20861;SDS011;10591;52.532;13.348;2023-01-15T17:28:07;7.90;;;3.20;;
20861;SDS011;10591;52.532;13.348;2023-01-15T17:30:40;4.03;;;2.20;;
20861;SDS011;10591;52.532;13.348;2023-01-15T17:33:13;5.03;;;2.93;;
20861;SDS011;10591;52.532;13.348;2023-01-15T17:35:45;15.77;;;5.53;;
20861;SDS011;10591;52.532;13.348;2023-01-15T17:38:16;10.83;;;3.97;;
20861;SDS011;10591;52.532;13.348;2023-01-15T17:40:49;8.83;;;3.80;;
20861;SDS011;10591;52.532;13.348;2023-01-15T17:43:22;9.80;;;4.00;;
20861;SDS011;10591;52.532;13.348;2023-01-15T17:45:55;5.30;;;2.80;;
20861;SDS011;10591;52.532;13.348;2023-01-15T17:48:29;4.93;;;2.50;;
20861;SDS011;10591;52.532;13.348;2023-01-15T17:51:08;3.50;;;2.30;;
20861;SDS011;10591;52.532;13.348;2023-01-15T17:53:34;5.03;;;2.87;;
20861;SDS011;10591;52.532;13.348;2023-01-15T17:56:05;4.23;;;2.63;;
20861;SDS011;10591;52.532;13.348;2023-01-15T17:58:54;5.20;;;2.67;;
20861;SDS011;10591;52.532;13.348;2023-01-15T18:01:46;8.80;;;4.08;;
20861;SDS011;10591;52.532;13.348;2023-01-15T18:04:43;9.73;;;4.60;;
20861;SDS011;10591;52.532;13.348;2023-01-15T18:07:36;7.33;;;3.50;;